sensor_id;sensor_type;location;lat;lon;timestamp;pressure;altitude;pressure_sealevel;temperature;humidity
60920;BME280;59039;52.108;19.942;2023-09-18T00:02:18;100769.63;;;17.90;74.48
60920;BME280;59039;52.108;19.942;2023-09-18T00:04:44;100765.73;;;17.90;74.35
60920;BME280;59039;52.108;19.942;2023-09-18T00:07:09;100770.91;;;17.91;74.58
60920;BME280;59039;52.108;19.942;2023-09-18T00:09:34;100770.41;;;17.92;74.35
60920;BME280;59039;52.108;19.942;2023-09-18T00:11:59;100774.11;;;17.93;74.34
60920;BME280;59039;52.108;19.942;2023-09-18T00:14:24;100770.31;;;17.94;74.52
60920;BME280;59039;52.108;19.942;2023-09-18T00:16:50;100769.09;;;17.95;74.36
60920;BME280;59039;52.108;19.942;2023-09-18T00:19:15;100763.30;;;17.97;74.49
60920;BME280;59039;52.108;19.942;2023-09-18T00:21:40;100766.66;;;17.98;74.97
60920;BME280;59039;52.108;19.942;2023-09-18T00:24:06;100764.84;;;17.98;74.52
60920;BME280;59039;52.108;19.942;2023-09-18T00:26:31;100763.76;;;17.99;74.71
60920;BME280;59039;52.108;19.942;2023-09-18T00:28:56;100759.83;;;17.99;74.68
60920;BME280;59039;52.108;19.942;2023-09-18T00:31:21;100756.91;;;17.99;74.56
60920;BME280;59039;52.108;19.942;2023-09-18T00:33:47;100753.48;;;18.00;74.45
60920;BME280;59039;52.108;19.942;2023-09-18T00:36:12;100749.67;;;18.00;74.51
60920;BME280;59039;52.108;19.942;2023-09-18T00:38:37;100749.00;;;18.01;74.46
60920;BME280;59039;52.108;19.942;2023-09-18T00:41:02;100748.86;;;18.00;74.69
60920;BME280;59039;52.108;19.942;2023-09-18T00:43:27;100751.79;;;18.01;74.45
60920;BME280;59039;52.108;19.942;2023-09-18T00:45:53;100749.16;;;17.99;74.54
60920;BME280;59039;52.108;19.942;2023-09-18T00:48:19;100748.36;;;17.99;74.72
60920;BME280;59039;52.108;19.942;2023-09-18T00:50:45;100744.54;;;17.99;74.66
60920;BME280;59039;52.108;19.942;2023-09-18T00:53:13;100744.52;;;17.97;74.62
60920;BME280;59039;52.108;19.942;2023-09-18T00:55:39;100744.67;;;17.94;74.78
60920;BME280;59039;52.108;19.942;2023-09-18T00:58:07;100743.14;;;17.93;74.79
60920;BME280;59039;52.108;19.942;2023-09-18T01:00:32;100748.86;;;17.91;74.80
60920;BME280;59039;52.108;19.942;2023-09-18T01:02:57;100749.27;;;17.90;74.85
60920;BME280;59039;52.108;19.942;2023-09-18T01:05:23;100748.45;;;17.88;74.92
60920;BME280;59039;52.108;19.942;2023-09-18T01:07:48;100747.48;;;17.87;74.81
60920;BME280;59039;52.108;19.942;2023-09-18T01:10:14;100746.76;;;17.85;75.08
60920;BME280;59039;52.108;19.942;2023-09-18T01:12:45;100746.23;;;17.83;75.17
60920;BME280;59039;52.108;19.942;2023-09-18T01:17:40;100751.38;;;17.82;75.37
60920;BME280;59039;52.108;19.942;2023-09-18T01:20:10;100749.21;;;17.82;75.36
60920;BME280;59039;52.108;19.942;2023-09-18T01:22:35;100741.89;;;17.82;75.42
60920;BME280;59039;52.108;19.942;2023-09-18T01:25:01;100745.06;;;17.81;75.40
60920;BME280;59039;52.108;19.942;2023-09-18T01:27:26;100740.89;;;17.81;75.48
60920;BME280;59039;52.108;19.942;2023-09-18T01:29:51;100742.86;;;17.80;75.34
60920;BME280;59039;52.108;19.942;2023-09-18T01:32:16;100744.38;;;17.78;75.57
60920;BME280;59039;52.108;19.942;2023-09-18T01:34:47;100742.15;;;17.76;75.63
60920;BME280;59039;52.108;19.942;2023-09-18T01:37:14;100741.96;;;17.75;75.72
60920;BME280;59039;52.108;19.942;2023-09-18T01:39:40;100740.64;;;17.74;75.45
60920;BME280;59039;52.108;19.942;2023-09-18T01:42:06;100740.48;;;17.72;75.63
60920;BME280;59039;52.108;19.942;2023-09-18T01:44:33;100739.70;;;17.69;75.66
60920;BME280;59039;52.108;19.942;2023-09-18T01:47:02;100741.29;;;17.67;75.90
60920;BME280;59039;52.108;19.942;2023-09-18T01:49:31;100742.63;;;17.65;75.91
60920;BME280;59039;52.108;19.942;2023-09-18T01:51:57;100745.20;;;17.65;76.37
60920;BME280;59039;52.108;19.942;2023-09-18T01:54:22;100741.78;;;17.66;76.30
60920;BME280;59039;52.108;19.942;2023-09-18T01:56:47;100738.11;;;17.66;76.18
60920;BME280;59039;52.108;19.942;2023-09-18T01:59:12;100738.03;;;17.67;76.23
60920;BME280;59039;52.108;19.942;2023-09-18T02:01:38;100738.54;;;17.67;76.16
60920;BME280;59039;52.108;19.942;2023-09-18T02:04:04;100736.39;;;17.67;76.31
60920;BME280;59039;52.108;19.942;2023-09-18T02:06:29;100735.66;;;17.67;76.23
60920;BME280;59039;52.108;19.942;2023-09-18T02:08:54;100734.67;;;17.66;76.19
60920;BME280;59039;52.108;19.942;2023-09-18T02:11:20;100730.85;;;17.64;76.32
60920;BME280;59039;52.108;19.942;2023-09-18T02:13:45;100728.94;;;17.63;76.35
60920;BME280;59039;52.108;19.942;2023-09-18T02:16:10;100727.07;;;17.62;76.58
60920;BME280;59039;52.108;19.942;2023-09-18T02:18:35;100724.78;;;17.62;76.48
60920;BME280;59039;52.108;19.942;2023-09-18T02:21:00;100723.97;;;17.61;76.60
60920;BME280;59039;52.108;19.942;2023-09-18T02:23:26;100723.63;;;17.61;76.50
60920;BME280;59039;52.108;19.942;2023-09-18T02:25:58;100723.33;;;17.60;76.57
60920;BME280;59039;52.108;19.942;2023-09-18T02:28:23;100723.05;;;17.60;76.53
60920;BME280;59039;52.108;19.942;2023-09-18T02:30:48;100725.11;;;17.59;76.49
60920;BME280;59039;52.108;19.942;2023-09-18T02:33:15;100727.84;;;17.58;76.49
60920;BME280;59039;52.108;19.942;2023-09-18T02:35:40;100724.99;;;17.55;76.31
60920;BME280;59039;52.108;19.942;2023-09-18T02:38:05;100721.83;;;17.53;76.49
60920;BME280;59039;52.108;19.942;2023-09-18T02:40:31;100721.20;;;17.49;76.55
60920;BME280;59039;52.108;19.942;2023-09-18T02:42:56;100720.55;;;17.47;76.70
60920;BME280;59039;52.108;19.942;2023-09-18T02:45:21;100720.70;;;17.46;76.76
60920;BME280;59039;52.108;19.942;2023-09-18T02:47:46;100722.36;;;17.44;76.88
60920;BME280;59039;52.108;19.942;2023-09-18T02:50:11;100719.51;;;17.42;77.09
60920;BME280;59039;52.108;19.942;2023-09-18T02:52:37;100718.18;;;17.41;77.00
60920;BME280;59039;52.108;19.942;2023-09-18T02:55:02;100719.15;;;17.41;76.96
60920;BME280;59039;52.108;19.942;2023-09-18T02:57:28;100717.98;;;17.41;77.22
60920;BME280;59039;52.108;19.942;2023-09-18T02:59:53;100717.92;;;17.40;77.12
60920;BME280;59039;52.108;19.942;2023-09-18T03:02:18;100716.80;;;17.39;77.18
60920;BME280;59039;52.108;19.942;2023-09-18T03:04:43;100713.97;;;17.38;77.03
60920;BME280;59039;52.108;19.942;2023-09-18T03:07:08;100710.52;;;17.36;77.20
60920;BME280;59039;52.108;19.942;2023-09-18T03:09:34;100711.18;;;17.36;77.18
60920;BME280;59039;52.108;19.942;2023-09-18T03:11:59;100707.36;;;17.34;77.32
60920;BME280;59039;52.108;19.942;2023-09-18T03:14:24;100709.73;;;17.32;77.26
60920;BME280;59039;52.108;19.942;2023-09-18T03:16:49;100704.45;;;17.31;77.48
60920;BME280;59039;52.108;19.942;2023-09-18T03:19:14;100707.34;;;17.30;77.29
60920;BME280;59039;52.108;19.942;2023-09-18T03:21:40;100709.78;;;17.28;77.59
60920;BME280;59039;52.108;19.942;2023-09-18T03:24:05;100711.29;;;17.27;77.67
60920;BME280;59039;52.108;19.942;2023-09-18T03:26:31;100712.27;;;17.25;77.64
60920;BME280;59039;52.108;19.942;2023-09-18T03:28:56;100709.05;;;17.23;77.84
60920;BME280;59039;52.108;19.942;2023-09-18T03:31:21;100704.52;;;17.23;77.96
60920;BME280;59039;52.108;19.942;2023-09-18T03:33:46;100703.36;;;17.23;77.94
60920;BME280;59039;52.108;19.942;2023-09-18T03:36:11;100705.15;;;17.22;77.84
60920;BME280;59039;52.108;19.942;2023-09-18T03:38:37;100702.27;;;17.22;78.12
60920;BME280;59039;52.108;19.942;2023-09-18T03:41:02;100697.90;;;17.22;77.96
60920;BME280;59039;52.108;19.942;2023-09-18T03:43:27;100696.55;;;17.21;77.89
60920;BME280;59039;52.108;19.942;2023-09-18T03:45:52;100689.90;;;17.20;78.19
60920;BME280;59039;52.108;19.942;2023-09-18T03:48:18;100692.59;;;17.19;78.13
60920;BME280;59039;52.108;19.942;2023-09-18T03:50:43;100693.59;;;17.18;78.24
60920;BME280;59039;52.108;19.942;2023-09-18T03:53:09;100690.89;;;17.18;78.24
60920;BME280;59039;52.108;19.942;2023-09-18T03:55:34;100689.54;;;17.18;78.26
60920;BME280;59039;52.108;19.942;2023-09-18T03:58:00;100688.02;;;17.19;78.16
60920;BME280;59039;52.108;19.942;2023-09-18T04:00:25;100685.89;;;17.18;78.25
60920;BME280;59039;52.108;19.942;2023-09-18T04:02:50;100687.89;;;17.18;78.46
60920;BME280;59039;52.108;19.942;2023-09-18T04:05:15;100678.21;;;17.18;78.27
60920;BME280;59039;52.108;19.942;2023-09-18T04:07:40;100680.41;;;17.18;78.38
60920;BME280;59039;52.108;19.942;2023-09-18T04:10:06;100674.54;;;17.18;78.42
60920;BME280;59039;52.108;19.942;2023-09-18T04:12:31;100676.66;;;17.19;78.27
60920;BME280;59039;52.108;19.942;2023-09-18T04:14:56;100671.81;;;17.17;78.18
60920;BME280;59039;52.108;19.942;2023-09-18T04:17:22;100666.36;;;17.14;78.50
60920;BME280;59039;52.108;19.942;2023-09-18T04:19:47;100663.56;;;17.12;78.45
60920;BME280;59039;52.108;19.942;2023-09-18T04:22:12;100666.59;;;17.11;78.44
60920;BME280;59039;52.108;19.942;2023-09-18T04:24:37;100661.15;;;17.09;78.51
60920;BME280;59039;52.108;19.942;2023-09-18T04:27:03;100660.26;;;17.08;78.58
60920;BME280;59039;52.108;19.942;2023-09-18T04:29:28;100659.34;;;17.06;78.50
60920;BME280;59039;52.108;19.942;2023-09-18T04:31:53;100657.96;;;17.04;78.45
60920;BME280;59039;52.108;19.942;2023-09-18T04:34:18;100657.30;;;17.02;78.66
60920;BME280;59039;52.108;19.942;2023-09-18T04:36:44;100653.19;;;17.00;78.50
60920;BME280;59039;52.108;19.942;2023-09-18T04:39:09;100653.48;;;16.98;78.67
60920;BME280;59039;52.108;19.942;2023-09-18T04:41:34;100653.75;;;16.96;78.82
60920;BME280;59039;52.108;19.942;2023-09-18T04:43:59;100654.50;;;16.94;79.11
60920;BME280;59039;52.108;19.942;2023-09-18T04:46:24;100649.95;;;16.92;78.79
60920;BME280;59039;52.108;19.942;2023-09-18T04:48:50;100646.93;;;16.90;79.09
60920;BME280;59039;52.108;19.942;2023-09-18T04:51:16;100647.04;;;16.89;78.95
60920;BME280;59039;52.108;19.942;2023-09-18T04:53:41;100647.23;;;16.87;78.93
60920;BME280;59039;52.108;19.942;2023-09-18T04:56:06;100652.70;;;16.86;79.01
60920;BME280;59039;52.108;19.942;2023-09-18T04:58:31;100643.69;;;16.85;79.11
60920;BME280;59039;52.108;19.942;2023-09-18T05:00:58;100642.36;;;16.84;79.24
60920;BME280;59039;52.108;19.942;2023-09-18T05:03:24;100642.74;;;16.84;79.37
60920;BME280;59039;52.108;19.942;2023-09-18T05:05:49;100639.83;;;16.84;79.38
60920;BME280;59039;52.108;19.942;2023-09-18T05:08:15;100632.99;;;16.84;79.56
60920;BME280;59039;52.108;19.942;2023-09-18T05:10:41;100633.45;;;16.86;79.79
60920;BME280;59039;52.108;19.942;2023-09-18T05:13:06;100633.30;;;16.89;79.88
60920;BME280;59039;52.108;19.942;2023-09-18T05:15:31;100631.13;;;16.93;80.02
60920;BME280;59039;52.108;19.942;2023-09-18T05:17:58;100630.50;;;16.97;79.86
60920;BME280;59039;52.108;19.942;2023-09-18T05:20:25;100629.86;;;17.01;80.07
60920;BME280;59039;52.108;19.942;2023-09-18T05:22:51;100630.73;;;17.05;79.97
60920;BME280;59039;52.108;19.942;2023-09-18T05:25:17;100631.89;;;17.09;79.84
60920;BME280;59039;52.108;19.942;2023-09-18T05:27:42;100629.98;;;17.13;79.94
60920;BME280;59039;52.108;19.942;2023-09-18T05:30:08;100624.95;;;17.17;79.77
60920;BME280;59039;52.108;19.942;2023-09-18T05:32:33;100627.65;;;17.20;79.68
60920;BME280;59039;52.108;19.942;2023-09-18T05:34:59;100624.79;;;17.24;79.60
60920;BME280;59039;52.108;19.942;2023-09-18T05:37:24;100623.73;;;17.27;79.65
60920;BME280;59039;52.108;19.942;2023-09-18T05:39:49;100623.26;;;17.31;79.67
60920;BME280;59039;52.108;19.942;2023-09-18T05:42:14;100625.31;;;17.37;79.45
60920;BME280;59039;52.108;19.942;2023-09-18T05:44:39;100624.59;;;17.41;79.45
60920;BME280;59039;52.108;19.942;2023-09-18T05:47:05;100625.84;;;17.47;79.47
60920;BME280;59039;52.108;19.942;2023-09-18T05:49:30;100626.27;;;17.52;79.57
60920;BME280;59039;52.108;19.942;2023-09-18T05:51:55;100627.73;;;17.58;79.43
60920;BME280;59039;52.108;19.942;2023-09-18T05:54:20;100626.41;;;17.64;79.55
60920;BME280;59039;52.108;19.942;2023-09-18T05:56:45;100624.18;;;17.70;79.37
60920;BME280;59039;52.108;19.942;2023-09-18T05:59:11;100621.02;;;17.76;79.37
60920;BME280;59039;52.108;19.942;2023-09-18T06:01:36;100620.13;;;17.82;79.26
60920;BME280;59039;52.108;19.942;2023-09-18T06:04:01;100620.99;;;17.88;79.14
60920;BME280;59039;52.108;19.942;2023-09-18T06:06:26;100624.99;;;17.96;79.30
60920;BME280;59039;52.108;19.942;2023-09-18T06:08:52;100621.02;;;18.01;79.17
60920;BME280;59039;52.108;19.942;2023-09-18T06:11:17;100620.10;;;18.06;79.34
60920;BME280;59039;52.108;19.942;2023-09-18T06:13:42;100621.88;;;18.12;79.33
60920;BME280;59039;52.108;19.942;2023-09-18T06:16:07;100619.84;;;18.18;79.19
60920;BME280;59039;52.108;19.942;2023-09-18T06:18:33;100619.64;;;18.24;79.07
60920;BME280;59039;52.108;19.942;2023-09-18T06:20:58;100618.15;;;18.30;78.92
60920;BME280;59039;52.108;19.942;2023-09-18T06:23:23;100615.58;;;18.37;78.83
60920;BME280;59039;52.108;19.942;2023-09-18T06:25:48;100615.70;;;18.43;78.69
60920;BME280;59039;52.108;19.942;2023-09-18T06:28:14;100614.98;;;18.50;78.79
60920;BME280;59039;52.108;19.942;2023-09-18T06:30:39;100615.11;;;18.57;78.75
60920;BME280;59039;52.108;19.942;2023-09-18T06:33:04;100609.52;;;18.65;78.48
60920;BME280;59039;52.108;19.942;2023-09-18T06:35:29;100609.91;;;18.73;78.58
60920;BME280;59039;52.108;19.942;2023-09-18T06:37:55;100606.43;;;18.82;78.66
60920;BME280;59039;52.108;19.942;2023-09-18T06:40:20;100606.77;;;18.91;78.58
60920;BME280;59039;52.108;19.942;2023-09-18T06:42:45;100605.95;;;19.00;78.33
60920;BME280;59039;52.108;19.942;2023-09-18T06:45:10;100603.37;;;19.10;78.08
60920;BME280;59039;52.108;19.942;2023-09-18T06:47:36;100601.15;;;19.18;77.85
60920;BME280;59039;52.108;19.942;2023-09-18T06:50:01;100602.83;;;19.26;77.70
60920;BME280;59039;52.108;19.942;2023-09-18T06:52:28;100605.81;;;19.33;77.88
60920;BME280;59039;52.108;19.942;2023-09-18T06:54:53;100602.17;;;19.39;77.83
60920;BME280;59039;52.108;19.942;2023-09-18T06:57:19;100605.27;;;19.48;77.54
60920;BME280;59039;52.108;19.942;2023-09-18T06:59:44;100604.51;;;19.55;77.53
60920;BME280;59039;52.108;19.942;2023-09-18T07:02:10;100603.97;;;19.64;77.24
60920;BME280;59039;52.108;19.942;2023-09-18T07:04:35;100599.64;;;19.71;77.25
60920;BME280;59039;52.108;19.942;2023-09-18T07:07:00;100594.81;;;19.80;77.02
60920;BME280;59039;52.108;19.942;2023-09-18T07:09:25;100594.86;;;19.89;76.68
60920;BME280;59039;52.108;19.942;2023-09-18T07:11:51;100594.81;;;19.97;76.48
60920;BME280;59039;52.108;19.942;2023-09-18T07:14:16;100596.30;;;20.06;76.22
60920;BME280;59039;52.108;19.942;2023-09-18T07:16:43;100595.66;;;20.15;75.89
60920;BME280;59039;52.108;19.942;2023-09-18T07:19:08;100594.63;;;20.24;75.34
60920;BME280;59039;52.108;19.942;2023-09-18T07:21:33;100592.79;;;20.32;75.44
60920;BME280;59039;52.108;19.942;2023-09-18T07:23:58;100589.98;;;20.38;75.24
60920;BME280;59039;52.108;19.942;2023-09-18T07:26:24;100589.49;;;20.46;74.98
60920;BME280;59039;52.108;19.942;2023-09-18T07:28:49;100584.52;;;20.52;74.86
60920;BME280;59039;52.108;19.942;2023-09-18T07:31:14;100587.03;;;20.60;74.52
60920;BME280;59039;52.108;19.942;2023-09-18T07:33:40;100586.63;;;20.66;74.56
60920;BME280;59039;52.108;19.942;2023-09-18T07:36:06;100588.77;;;20.74;74.17
60920;BME280;59039;52.108;19.942;2023-09-18T07:38:31;100588.07;;;20.80;73.93
60920;BME280;59039;52.108;19.942;2023-09-18T07:40:56;100586.61;;;20.85;74.10
60920;BME280;59039;52.108;19.942;2023-09-18T07:43:21;100587.73;;;20.90;73.93
60920;BME280;59039;52.108;19.942;2023-09-18T07:45:49;100592.30;;;20.97;73.77
60920;BME280;59039;52.108;19.942;2023-09-18T07:48:14;100590.56;;;21.04;73.46
60920;BME280;59039;52.108;19.942;2023-09-18T07:50:43;100589.77;;;21.10;73.08
60920;BME280;59039;52.108;19.942;2023-09-18T07:53:08;100582.48;;;21.14;72.91
60920;BME280;59039;52.108;19.942;2023-09-18T07:55:33;100583.92;;;21.19;73.13
60920;BME280;59039;52.108;19.942;2023-09-18T07:57:59;100580.12;;;21.25;72.91
60920;BME280;59039;52.108;19.942;2023-09-18T08:00:24;100581.71;;;21.29;72.69
60920;BME280;59039;52.108;19.942;2023-09-18T08:02:49;100574.08;;;21.34;72.29
60920;BME280;59039;52.108;19.942;2023-09-18T08:05:14;100568.61;;;21.38;72.36
60920;BME280;59039;52.108;19.942;2023-09-18T08:07:39;100565.37;;;21.43;72.00
60920;BME280;59039;52.108;19.942;2023-09-18T08:10:05;100563.08;;;21.47;71.95
60920;BME280;59039;52.108;19.942;2023-09-18T08:12:31;100562.08;;;21.53;71.96
60920;BME280;59039;52.108;19.942;2023-09-18T08:14:56;100560.06;;;21.61;72.06
60920;BME280;59039;52.108;19.942;2023-09-18T08:17:22;100558.83;;;21.66;71.82
60920;BME280;59039;52.108;19.942;2023-09-18T08:19:50;100559.80;;;21.73;71.25
60920;BME280;59039;52.108;19.942;2023-09-18T08:22:16;100562.17;;;21.78;71.21
60920;BME280;59039;52.108;19.942;2023-09-18T08:24:41;100563.11;;;21.84;70.91
60920;BME280;59039;52.108;19.942;2023-09-18T08:27:06;100562.80;;;21.90;71.15
60920;BME280;59039;52.108;19.942;2023-09-18T08:29:31;100561.64;;;21.95;70.71
60920;BME280;59039;52.108;19.942;2023-09-18T08:31:56;100558.97;;;21.99;70.41
60920;BME280;59039;52.108;19.942;2023-09-18T08:34:22;100563.20;;;22.03;70.62
60920;BME280;59039;52.108;19.942;2023-09-18T08:36:47;100562.34;;;22.08;70.60
60920;BME280;59039;52.108;19.942;2023-09-18T08:39:12;100562.39;;;22.13;70.52
60920;BME280;59039;52.108;19.942;2023-09-18T08:41:42;100564.45;;;22.19;70.45
60920;BME280;59039;52.108;19.942;2023-09-18T08:44:08;100560.61;;;22.24;70.21
60920;BME280;59039;52.108;19.942;2023-09-18T08:46:33;100553.64;;;22.29;69.78
60920;BME280;59039;52.108;19.942;2023-09-18T08:49:00;100545.16;;;22.35;69.87
60920;BME280;59039;52.108;19.942;2023-09-18T08:51:25;100545.55;;;22.40;69.38
60920;BME280;59039;52.108;19.942;2023-09-18T08:53:51;100546.17;;;22.46;69.23
60920;BME280;59039;52.108;19.942;2023-09-18T08:56:18;100544.63;;;22.51;68.95
60920;BME280;59039;52.108;19.942;2023-09-18T08:58:45;100537.77;;;22.59;68.92
60920;BME280;59039;52.108;19.942;2023-09-18T09:01:12;100536.21;;;22.67;68.51
60920;BME280;59039;52.108;19.942;2023-09-18T09:03:38;100537.73;;;22.73;68.39
60920;BME280;59039;52.108;19.942;2023-09-18T09:06:04;100530.14;;;22.79;68.06
60920;BME280;59039;52.108;19.942;2023-09-18T09:08:30;100529.27;;;22.85;67.95
60920;BME280;59039;52.108;19.942;2023-09-18T09:10:55;100525.46;;;22.91;67.91
60920;BME280;59039;52.108;19.942;2023-09-18T09:13:20;100519.38;;;22.98;67.80
60920;BME280;59039;52.108;19.942;2023-09-18T09:15:47;100515.34;;;23.04;67.53
60920;BME280;59039;52.108;19.942;2023-09-18T09:18:13;100513.64;;;23.10;67.39
60920;BME280;59039;52.108;19.942;2023-09-18T09:20:38;100504.80;;;23.17;67.05
60920;BME280;59039;52.108;19.942;2023-09-18T09:23:05;100503.59;;;23.24;66.98
60920;BME280;59039;52.108;19.942;2023-09-18T09:25:32;100500.40;;;23.31;66.73
60920;BME280;59039;52.108;19.942;2023-09-18T09:27:59;100492.19;;;23.38;66.18
60920;BME280;59039;52.108;19.942;2023-09-18T09:30:27;100490.92;;;23.42;66.18
60920;BME280;59039;52.108;19.942;2023-09-18T09:32:54;100491.48;;;23.51;65.74
60920;BME280;59039;52.108;19.942;2023-09-18T09:35:25;100488.10;;;23.58;65.36
60920;BME280;59039;52.108;19.942;2023-09-18T09:37:51;100489.23;;;23.65;65.52
60920;BME280;59039;52.108;19.942;2023-09-18T09:40:16;100489.14;;;23.73;65.24
60920;BME280;59039;52.108;19.942;2023-09-18T09:42:43;100484.17;;;23.82;64.67
60920;BME280;59039;52.108;19.942;2023-09-18T09:45:14;100477.10;;;23.88;64.33
60920;BME280;59039;52.108;19.942;2023-09-18T09:47:39;100476.33;;;23.95;64.34
60920;BME280;59039;52.108;19.942;2023-09-18T09:50:12;100473.80;;;24.04;63.57
60920;BME280;59039;52.108;19.942;2023-09-18T09:52:47;100466.32;;;24.10;63.88
60920;BME280;59039;52.108;19.942;2023-09-18T09:55:25;100464.70;;;24.16;63.37
60920;BME280;59039;52.108;19.942;2023-09-18T09:57:53;100464.14;;;24.24;63.47
60920;BME280;59039;52.108;19.942;2023-09-18T10:00:19;100459.34;;;24.31;63.10
60920;BME280;59039;52.108;19.942;2023-09-18T10:02:44;100457.91;;;24.39;62.39
60920;BME280;59039;52.108;19.942;2023-09-18T10:05:09;100456.38;;;24.46;61.92
60920;BME280;59039;52.108;19.942;2023-09-18T10:07:35;100453.86;;;24.51;61.85
60920;BME280;59039;52.108;19.942;2023-09-18T10:10:01;100450.48;;;24.57;61.80
60920;BME280;59039;52.108;19.942;2023-09-18T10:12:27;100443.52;;;24.67;61.30
60920;BME280;59039;52.108;19.942;2023-09-18T10:14:56;100440.77;;;24.78;60.74
60920;BME280;59039;52.108;19.942;2023-09-18T10:17:22;100438.56;;;24.85;60.30
60920;BME280;59039;52.108;19.942;2023-09-18T10:22:33;100433.70;;;24.98;59.19
60920;BME280;59039;52.108;19.942;2023-09-18T10:25:11;100434.30;;;25.01;58.79
60920;BME280;59039;52.108;19.942;2023-09-18T10:27:39;100434.65;;;25.02;59.20
60920;BME280;59039;52.108;19.942;2023-09-18T10:30:08;100433.19;;;25.04;59.47
60920;BME280;59039;52.108;19.942;2023-09-18T10:32:35;100426.09;;;25.05;59.00
60920;BME280;59039;52.108;19.942;2023-09-18T10:35:01;100425.40;;;25.07;58.84
60920;BME280;59039;52.108;19.942;2023-09-18T10:37:27;100426.21;;;25.09;58.26
60920;BME280;59039;52.108;19.942;2023-09-18T10:39:56;100421.95;;;25.10;58.22
60920;BME280;59039;52.108;19.942;2023-09-18T10:42:22;100417.58;;;25.14;58.27
60920;BME280;59039;52.108;19.942;2023-09-18T10:44:48;100418.90;;;25.18;58.00
60920;BME280;59039;52.108;19.942;2023-09-18T10:47:14;100410.88;;;25.23;57.90
60920;BME280;59039;52.108;19.942;2023-09-18T10:49:39;100404.48;;;25.27;57.80
60920;BME280;59039;52.108;19.942;2023-09-18T10:52:05;100399.96;;;25.30;57.40
60920;BME280;59039;52.108;19.942;2023-09-18T10:54:31;100396.88;;;25.32;57.37
60920;BME280;59039;52.108;19.942;2023-09-18T10:56:57;100393.61;;;25.32;57.34
60920;BME280;59039;52.108;19.942;2023-09-18T10:59:23;100389.82;;;25.35;55.96
60920;BME280;59039;52.108;19.942;2023-09-18T11:01:48;100387.55;;;25.36;55.41
60920;BME280;59039;52.108;19.942;2023-09-18T11:04:18;100390.29;;;25.37;55.12
60920;BME280;59039;52.108;19.942;2023-09-18T11:09:23;100386.40;;;25.38;54.39
60920;BME280;59039;52.108;19.942;2023-09-18T11:11:53;100380.85;;;25.37;54.97
60920;BME280;59039;52.108;19.942;2023-09-18T11:14:19;100380.31;;;25.39;54.58
60920;BME280;59039;52.108;19.942;2023-09-18T11:16:48;100381.27;;;25.39;54.05
60920;BME280;59039;52.108;19.942;2023-09-18T11:19:17;100378.27;;;25.40;53.98
60920;BME280;59039;52.108;19.942;2023-09-18T11:21:43;100372.54;;;25.41;53.93
60920;BME280;59039;52.108;19.942;2023-09-18T11:26:41;100370.98;;;25.43;53.54
60920;BME280;59039;52.108;19.942;2023-09-18T11:29:09;100370.62;;;25.46;53.30
60920;BME280;59039;52.108;19.942;2023-09-18T11:31:48;100373.88;;;25.49;53.32
60920;BME280;59039;52.108;19.942;2023-09-18T11:34:15;100370.90;;;25.53;52.54
60920;BME280;59039;52.108;19.942;2023-09-18T11:36:44;100370.40;;;25.57;52.32
60920;BME280;59039;52.108;19.942;2023-09-18T11:39:10;100363.54;;;25.60;52.00
60920;BME280;59039;52.108;19.942;2023-09-18T11:41:36;100366.64;;;25.63;51.91
60920;BME280;59039;52.108;19.942;2023-09-18T11:46:36;100364.01;;;25.64;51.65
60920;BME280;59039;52.108;19.942;2023-09-18T11:49:03;100363.28;;;25.65;51.15
60920;BME280;59039;52.108;19.942;2023-09-18T11:51:28;100363.34;;;25.66;51.11
60920;BME280;59039;52.108;19.942;2023-09-18T11:53:56;100358.02;;;25.67;51.23
60920;BME280;59039;52.108;19.942;2023-09-18T11:56:22;100360.27;;;25.69;51.49
60920;BME280;59039;52.108;19.942;2023-09-18T11:58:48;100361.48;;;25.72;51.37
60920;BME280;59039;52.108;19.942;2023-09-18T12:01:14;100356.29;;;25.74;50.48
60920;BME280;59039;52.108;19.942;2023-09-18T12:03:39;100356.17;;;25.74;50.15
60920;BME280;59039;52.108;19.942;2023-09-18T12:06:05;100357.29;;;25.74;50.26
60920;BME280;59039;52.108;19.942;2023-09-18T12:08:31;100357.24;;;25.75;49.90
60920;BME280;59039;52.108;19.942;2023-09-18T12:10:58;100355.56;;;25.74;50.12
60920;BME280;59039;52.108;19.942;2023-09-18T12:13:26;100352.05;;;25.75;49.99
60920;BME280;59039;52.108;19.942;2023-09-18T12:16:03;100353.41;;;25.76;49.57
60920;BME280;59039;52.108;19.942;2023-09-18T12:18:28;100352.64;;;25.77;49.66
60920;BME280;59039;52.108;19.942;2023-09-18T12:20:54;100350.35;;;25.77;49.80
60920;BME280;59039;52.108;19.942;2023-09-18T12:23:19;100346.70;;;25.78;49.96
60920;BME280;59039;52.108;19.942;2023-09-18T12:25:47;100340.86;;;25.78;49.77
60920;BME280;59039;52.108;19.942;2023-09-18T12:28:14;100340.27;;;25.79;49.66
60920;BME280;59039;52.108;19.942;2023-09-18T12:30:39;100339.79;;;25.81;49.74
60920;BME280;59039;52.108;19.942;2023-09-18T12:33:05;100337.71;;;25.84;49.46
60920;BME280;59039;52.108;19.942;2023-09-18T12:35:30;100334.16;;;25.85;49.55
60920;BME280;59039;52.108;19.942;2023-09-18T12:37:59;100327.31;;;25.86;49.13
60920;BME280;59039;52.108;19.942;2023-09-18T12:40:31;100321.75;;;25.86;49.12
60920;BME280;59039;52.108;19.942;2023-09-18T12:42:57;100321.13;;;25.88;49.30
60920;BME280;59039;52.108;19.942;2023-09-18T12:45:24;100318.61;;;25.90;49.09
60920;BME280;59039;52.108;19.942;2023-09-18T12:47:50;100316.55;;;25.91;49.09